createdAt,value
2023-11-09T00:00:10.600Z,7.86
2023-11-09T00:02:38.163Z,7.77
2023-11-09T00:05:09.178Z,7.84
2023-11-09T00:07:36.491Z,7.77
2023-11-09T00:10:07.893Z,7.63
2023-11-09T00:12:35.454Z,7.76
2023-11-09T00:15:04.226Z,7.63
2023-11-09T00:17:31.811Z,7.64
2023-11-09T00:19:59.149Z,7.78
2023-11-09T00:22:27.012Z,7.58
2023-11-09T00:24:54.617Z,7.54
2023-11-09T00:27:22.215Z,7.45
2023-11-09T00:29:49.591Z,7.67
2023-11-09T00:32:17.541Z,7.63
2023-11-09T00:34:45.336Z,7.53
2023-11-09T00:37:12.798Z,7.42
2023-11-09T00:39:40.854Z,7.48
2023-11-09T00:42:08.137Z,7.53
2023-11-09T00:44:35.911Z,7.53
2023-11-09T00:47:05.215Z,7.44
2023-11-09T00:49:32.651Z,7.51
2023-11-09T00:52:00.170Z,7.44
2023-11-09T00:54:27.729Z,7.37
2023-11-09T00:56:55.018Z,7.42
2023-11-09T00:59:22.296Z,7.26
2023-11-09T01:01:49.822Z,7.41
2023-11-09T01:04:17.453Z,7.41
2023-11-09T01:06:44.741Z,7.53
2023-11-09T01:09:12.808Z,7.40
2023-11-09T01:11:41.544Z,7.46
2023-11-09T01:14:08.760Z,7.39
2023-11-09T01:16:36.316Z,7.47
2023-11-09T01:19:04.290Z,7.26
2023-11-09T01:21:33.305Z,7.28
2023-11-09T01:24:00.805Z,7.49
2023-11-09T01:26:28.174Z,7.19
2023-11-09T01:28:55.429Z,7.29
2023-11-09T01:31:22.994Z,7.43
2023-11-09T01:36:35.144Z,7.39
2023-11-09T01:39:02.517Z,7.33
2023-11-09T01:41:29.752Z,7.39
2023-11-09T01:43:57.533Z,7.48
2023-11-09T01:46:25.173Z,7.23
2023-11-09T01:48:52.730Z,7.29
2023-11-09T01:51:20.423Z,7.39
2023-11-09T01:53:47.999Z,7.35
2023-11-09T01:56:15.768Z,7.55
2023-11-09T01:58:43.909Z,7.34
2023-11-09T02:01:12.937Z,7.64
2023-11-09T02:03:41.719Z,7.35
2023-11-09T02:06:14.083Z,7.37
2023-11-09T02:08:41.632Z,7.32
2023-11-09T02:11:10.427Z,7.29
2023-11-09T02:13:38.780Z,7.35
2023-11-09T02:16:06.574Z,7.12
2023-11-09T02:18:34.356Z,7.25
2023-11-09T02:21:01.644Z,7.25
2023-11-09T02:23:31.033Z,7.28
2023-11-09T02:25:58.315Z,7.10
2023-11-09T02:28:25.771Z,7.31
2023-11-09T02:30:53.323Z,7.17
2023-11-09T02:33:20.691Z,7.05
2023-11-09T02:35:48.051Z,7.04
2023-11-09T02:38:15.576Z,7.04
2023-11-09T02:40:42.866Z,6.91
2023-11-09T02:43:10.191Z,6.78
2023-11-09T02:45:37.750Z,6.73
2023-11-09T02:48:05.671Z,6.83
2023-11-09T02:50:33.071Z,6.71
2023-11-09T02:53:01.015Z,6.66
2023-11-09T02:55:28.330Z,6.69
2023-11-09T02:57:55.605Z,6.71
2023-11-09T03:00:23.206Z,6.63
2023-11-09T03:02:52.997Z,6.78
2023-11-09T03:05:23.213Z,6.67
2023-11-09T03:07:50.920Z,6.67
2023-11-09T03:10:18.571Z,6.95
2023-11-09T03:12:46.513Z,6.77
2023-11-09T03:15:14.025Z,6.78
2023-11-09T03:17:42.536Z,6.80
2023-11-09T03:20:10.579Z,6.95
2023-11-09T03:22:38.434Z,6.83
2023-11-09T03:25:06.333Z,6.82
2023-11-09T03:27:34.296Z,6.87
2023-11-09T03:30:01.924Z,6.95
2023-11-09T03:32:29.192Z,6.97
2023-11-09T03:34:56.542Z,6.79
2023-11-09T03:37:24.093Z,6.83
2023-11-09T03:39:54.478Z,6.74
2023-11-09T03:42:21.878Z,6.68
2023-11-09T03:44:49.423Z,6.81
2023-11-09T03:47:16.759Z,6.78
2023-11-09T03:49:44.097Z,6.54
2023-11-09T03:52:11.839Z,6.86
2023-11-09T03:54:39.151Z,6.82
2023-11-09T03:57:06.377Z,6.62
2023-11-09T03:59:34.288Z,6.74
2023-11-09T04:02:02.417Z,6.45
2023-11-09T04:04:30.048Z,6.56
2023-11-09T04:06:57.402Z,6.51
2023-11-09T04:09:25.530Z,6.72
2023-11-09T04:11:53.346Z,6.63
2023-11-09T04:14:22.024Z,6.52
2023-11-09T04:16:49.363Z,6.53
2023-11-09T04:19:17.750Z,6.51
2023-11-09T04:21:45.613Z,6.52
2023-11-09T04:24:12.934Z,6.60
2023-11-09T04:26:43.277Z,6.57
2023-11-09T04:29:12.763Z,6.61
2023-11-09T04:31:43.174Z,6.57
2023-11-09T04:34:11.010Z,6.66
2023-11-09T04:36:44.109Z,6.70
2023-11-09T04:39:12.190Z,6.57
2023-11-09T04:41:40.368Z,6.63
2023-11-09T04:44:10.760Z,6.71
2023-11-09T04:46:42.224Z,6.58
2023-11-09T04:49:09.830Z,6.66
2023-11-09T04:51:38.906Z,6.50
2023-11-09T04:54:18.221Z,6.54
2023-11-09T04:56:48.732Z,6.49
2023-11-09T04:59:28.150Z,6.60
2023-11-09T05:02:18.873Z,6.18
2023-11-09T05:05:05.275Z,6.18
2023-11-09T05:07:34.112Z,6.32
2023-11-09T05:10:01.721Z,6.32
2023-11-09T05:12:29.315Z,6.30
2023-11-09T05:14:57.317Z,6.37
2023-11-09T05:17:24.833Z,6.32
2023-11-09T05:19:52.557Z,6.48
2023-11-09T05:22:20.432Z,6.48
2023-11-09T05:24:47.881Z,6.49
2023-11-09T05:27:15.425Z,6.55
2023-11-09T05:29:46.763Z,6.63
2023-11-09T05:32:15.253Z,6.35
2023-11-09T05:34:43.992Z,6.32
2023-11-09T05:37:11.318Z,6.19
2023-11-09T05:39:38.605Z,6.35
2023-11-09T05:42:06.603Z,6.41
2023-11-09T05:44:33.864Z,6.28
2023-11-09T05:47:01.089Z,6.36
2023-11-09T05:49:28.671Z,6.54
2023-11-09T05:51:55.993Z,6.53
2023-11-09T05:54:23.497Z,6.41
2023-11-09T05:56:50.984Z,6.24
2023-11-09T05:59:18.716Z,6.34
2023-11-09T06:01:46.322Z,6.53
2023-11-09T06:04:14.832Z,6.49
2023-11-09T06:06:44.998Z,6.36
2023-11-09T06:09:12.326Z,6.46
2023-11-09T06:11:39.845Z,6.53
2023-11-09T06:14:08.414Z,6.60
2023-11-09T06:16:35.795Z,6.47
2023-11-09T06:19:03.735Z,6.46
2023-11-09T06:21:31.253Z,6.54
2023-11-09T06:23:58.517Z,6.81
2023-11-09T06:26:26.327Z,6.70
2023-11-09T06:28:54.410Z,6.59
2023-11-09T06:31:23.348Z,6.72
2023-11-09T06:33:55.514Z,6.63
2023-11-09T06:36:23.382Z,6.60
2023-11-09T06:38:51.104Z,6.62
2023-11-09T06:41:18.395Z,6.87
2023-11-09T06:43:45.738Z,6.75
2023-11-09T06:46:23.069Z,6.82
2023-11-09T06:48:50.451Z,6.99
2023-11-09T06:51:18.494Z,6.85
2023-11-09T06:53:45.759Z,6.99
2023-11-09T06:56:13.106Z,6.90
2023-11-09T06:58:40.665Z,7.00
2023-11-09T07:01:08.836Z,7.09
2023-11-09T07:03:36.586Z,7.18
2023-11-09T07:06:04.289Z,7.15
2023-11-09T07:08:31.615Z,7.12
2023-11-09T07:11:00.523Z,7.29
2023-11-09T07:13:28.033Z,7.34
2023-11-09T07:15:55.278Z,7.36
2023-11-09T07:18:22.678Z,7.44
2023-11-09T07:20:59.048Z,7.38
2023-11-09T07:23:35.005Z,7.37
2023-11-09T07:26:02.553Z,7.52
2023-11-09T07:28:30.551Z,7.75
2023-11-09T07:30:57.842Z,7.78
2023-11-09T07:33:25.908Z,8.05
2023-11-09T07:35:53.305Z,7.98
2023-11-09T07:38:20.539Z,7.97
2023-11-09T07:40:48.089Z,7.95
2023-11-09T07:43:15.482Z,8.04
2023-11-09T07:45:42.951Z,8.11
2023-11-09T07:48:10.634Z,8.45
2023-11-09T07:50:39.427Z,8.50
2023-11-09T07:53:07.196Z,8.46
2023-11-09T07:55:34.740Z,8.53
2023-11-09T07:58:05.732Z,8.52
2023-11-09T08:00:33.046Z,8.68
2023-11-09T08:03:00.617Z,8.90
2023-11-09T08:05:28.008Z,8.94
2023-11-09T08:07:56.010Z,8.94
2023-11-09T08:10:25.447Z,9.02
2023-11-09T08:12:53.900Z,9.16
2023-11-09T08:15:21.257Z,9.47
2023-11-09T08:17:48.960Z,9.44
2023-11-09T08:20:17.066Z,9.62
2023-11-09T08:22:46.137Z,9.67
2023-11-09T08:25:19.082Z,9.78
2023-11-09T08:27:47.643Z,9.98
2023-11-09T08:30:17.067Z,10.03
2023-11-09T08:32:48.779Z,10.18
2023-11-09T08:35:17.125Z,10.37
2023-11-09T08:37:44.654Z,10.38
2023-11-09T08:40:19.270Z,10.64
2023-11-09T08:42:49.521Z,10.85
2023-11-09T08:45:19.277Z,10.86
2023-11-09T08:47:47.758Z,10.94
2023-11-09T08:50:15.053Z,11.14
2023-11-09T08:52:42.453Z,11.19
2023-11-09T08:55:10.551Z,11.29
2023-11-09T08:57:38.896Z,11.52
2023-11-09T09:00:07.397Z,11.85
2023-11-09T09:02:35.843Z,11.89
2023-11-09T09:05:03.232Z,11.74
2023-11-09T09:07:31.203Z,12.34
2023-11-09T09:10:00.720Z,12.50
2023-11-09T09:12:27.952Z,12.94
2023-11-09T09:14:55.638Z,13.08
2023-11-09T09:17:26.787Z,13.29
2023-11-09T09:19:57.422Z,13.28
2023-11-09T09:22:25.097Z,13.47
2023-11-09T09:24:52.343Z,13.35
2023-11-09T09:27:19.610Z,13.99
2023-11-09T09:29:47.466Z,14.25
2023-11-09T09:32:14.833Z,14.65
2023-11-09T09:34:42.271Z,14.65
2023-11-09T09:37:11.960Z,14.92
2023-11-09T09:39:39.256Z,15.17
2023-11-09T09:42:06.761Z,15.44
2023-11-09T09:44:34.822Z,15.34
2023-11-09T09:47:03.385Z,15.58
2023-11-09T09:49:30.651Z,16.02
2023-11-09T09:52:01.311Z,16.03
2023-11-09T09:54:28.816Z,15.85
2023-11-09T09:56:56.057Z,15.82
2023-11-09T09:59:24.231Z,16.08
2023-11-09T10:01:51.637Z,16.25
2023-11-09T10:04:19.961Z,16.50
2023-11-09T10:06:47.367Z,16.34
2023-11-09T10:09:16.188Z,16.55
2023-11-09T10:11:44.204Z,16.88
2023-11-09T10:14:12.799Z,17.07
2023-11-09T10:16:42.314Z,17.10
2023-11-09T10:19:10.749Z,16.52
2023-11-09T10:21:38.466Z,17.18
2023-11-09T10:24:07.424Z,17.25
2023-11-09T10:26:42.211Z,17.51
2023-11-09T10:29:16.206Z,17.28
2023-11-09T10:31:43.946Z,17.55
2023-11-09T10:34:16.608Z,17.67
2023-11-09T10:36:47.677Z,17.47
2023-11-09T10:39:19.444Z,17.21
2023-11-09T10:41:55.053Z,17.71
2023-11-09T10:44:25.914Z,17.34
2023-11-09T10:46:57.096Z,17.39
2023-11-09T10:49:31.927Z,17.74
2023-11-09T10:52:00.455Z,18.11
2023-11-09T10:54:30.477Z,18.08
2023-11-09T10:56:58.133Z,17.94
2023-11-09T10:59:25.965Z,18.17
2023-11-09T11:01:56.764Z,17.62
2023-11-09T11:04:26.670Z,17.45
2023-11-09T11:06:57.643Z,17.26
2023-11-09T11:09:28.105Z,17.03
2023-11-09T11:12:02.819Z,17.39
2023-11-09T11:14:30.887Z,17.64
2023-11-09T11:17:20.322Z,17.87
2023-11-09T11:19:50.418Z,17.79
2023-11-09T11:22:36.860Z,18.19
2023-11-09T11:25:08.129Z,18.28
2023-11-09T11:27:38.488Z,18.56
2023-11-09T11:30:15.737Z,17.65
2023-11-09T11:32:47.015Z,17.55
2023-11-09T11:35:15.830Z,18.16
2023-11-09T11:37:44.835Z,18.60
2023-11-09T11:40:18.550Z,18.24
2023-11-09T11:42:47.224Z,18.58
2023-11-09T11:45:15.616Z,18.32
2023-11-09T11:47:42.969Z,18.67
2023-11-09T11:50:11.577Z,18.56
2023-11-09T11:52:39.292Z,18.60
2023-11-09T11:55:11.346Z,18.66
2023-11-09T11:57:57.934Z,18.62
2023-11-09T12:00:35.558Z,18.40
2023-11-09T12:03:05.369Z,18.45
2023-11-09T12:05:32.778Z,18.81
2023-11-09T12:08:01.145Z,18.08
2023-11-09T12:10:29.218Z,18.11
2023-11-09T12:12:57.390Z,18.41
2023-11-09T12:15:31.448Z,18.75
2023-11-09T12:17:59.015Z,18.70
2023-11-09T12:20:27.020Z,19.00
2023-11-09T12:22:56.298Z,19.03
2023-11-09T12:25:27.640Z,18.44
2023-11-09T12:28:01.387Z,18.40
2023-11-09T12:30:29.984Z,18.35
2023-11-09T12:32:58.151Z,17.89
2023-11-09T12:35:25.455Z,18.48
2023-11-09T12:38:00.836Z,17.99
2023-11-09T12:40:41.741Z,18.32
2023-11-09T12:43:09.347Z,18.75
2023-11-09T12:45:39.606Z,18.58
2023-11-09T12:48:06.985Z,18.79
2023-11-09T12:50:35.914Z,18.38
2023-11-09T12:53:03.985Z,18.58
2023-11-09T12:55:33.455Z,18.73
2023-11-09T12:58:01.607Z,18.54
2023-11-09T13:00:31.406Z,18.29
2023-11-09T13:03:03.182Z,18.63
2023-11-09T13:05:34.172Z,18.32
2023-11-09T13:08:09.757Z,17.70
2023-11-09T13:10:39.827Z,17.47
2023-11-09T13:13:24.192Z,18.02
2023-11-09T13:15:52.040Z,18.15
2023-11-09T13:18:29.643Z,18.19
2023-11-09T13:20:57.487Z,18.46
2023-11-09T13:23:33.814Z,18.10
2023-11-09T13:26:02.491Z,17.86
2023-11-09T13:28:30.862Z,18.28
2023-11-09T13:31:05.010Z,17.96
2023-11-09T13:33:40.714Z,17.76
2023-11-09T13:36:14.758Z,17.46
2023-11-09T13:38:58.307Z,17.41
2023-11-09T13:41:42.593Z,16.87
2023-11-09T13:44:12.546Z,17.16
2023-11-09T13:46:42.489Z,17.64
2023-11-09T13:49:28.922Z,16.71
2023-11-09T13:52:02.318Z,16.64
2023-11-09T13:54:33.446Z,16.86
2023-11-09T13:57:00.723Z,16.41
2023-11-09T13:59:32.092Z,16.68
2023-11-09T14:02:00.076Z,16.82
2023-11-09T14:04:31.762Z,16.11
2023-11-09T14:06:59.968Z,16.95
2023-11-09T14:09:36.382Z,17.15
2023-11-09T14:12:10.339Z,16.97
2023-11-09T14:14:49.501Z,17.13
2023-11-09T14:17:18.654Z,16.86
2023-11-09T14:19:56.175Z,17.26
2023-11-09T14:22:24.378Z,16.37
2023-11-09T14:24:54.729Z,16.89
2023-11-09T14:27:24.177Z,16.85
2023-11-09T14:29:54.330Z,16.56
2023-11-09T14:32:25.486Z,16.17
2023-11-09T14:34:55.211Z,16.69
2023-11-09T14:37:23.920Z,16.80
2023-11-09T14:40:10.444Z,17.09
2023-11-09T14:42:38.049Z,16.94
2023-11-09T14:45:07.205Z,16.78
2023-11-09T14:47:42.837Z,16.38
2023-11-09T14:50:12.474Z,16.47
2023-11-09T14:52:50.793Z,16.80
2023-11-09T14:55:20.405Z,16.35
2023-11-09T14:57:48.905Z,16.35
2023-11-09T15:00:24.455Z,16.00
2023-11-09T15:02:52.189Z,16.23
2023-11-09T15:05:26.313Z,16.18
2023-11-09T15:07:55.938Z,16.05
2023-11-09T15:10:26.454Z,16.24
2023-11-09T15:12:54.891Z,16.28
2023-11-09T15:15:22.409Z,15.98
2023-11-09T15:17:50.181Z,15.97
2023-11-09T15:20:23.748Z,15.65
2023-11-09T15:22:57.285Z,15.75
2023-11-09T15:25:25.752Z,16.02
2023-11-09T15:27:53.373Z,15.86
2023-11-09T15:30:26.116Z,15.97
2023-11-09T15:32:55.042Z,15.66
2023-11-09T15:35:22.709Z,15.45
2023-11-09T15:37:55.424Z,15.61
2023-11-09T15:41:09.314Z,15.34
2023-11-09T15:43:11.922Z,15.39
2023-11-09T15:45:39.871Z,15.56
2023-11-09T15:48:09.199Z,15.63
2023-11-09T15:50:37.921Z,15.38
2023-11-09T15:53:06.781Z,15.40
2023-11-09T15:55:35.651Z,15.54
2023-11-09T15:58:10.805Z,15.52
2023-11-09T16:00:39.601Z,15.45
2023-11-09T16:03:07.701Z,15.04
2023-11-09T16:05:35.077Z,15.04
2023-11-09T16:08:06.197Z,15.04
2023-11-09T16:10:37.276Z,15.03
2023-11-09T16:13:05.582Z,14.98
2023-11-09T16:15:32.836Z,15.07
2023-11-09T16:18:01.510Z,14.99
2023-11-09T16:20:33.851Z,14.91
2023-11-09T16:23:06.789Z,14.96
2023-11-09T16:25:34.886Z,14.96
2023-11-09T16:28:08.377Z,14.72
2023-11-09T16:30:38.802Z,14.63
2023-11-09T16:33:09.525Z,14.73
2023-11-09T16:35:37.630Z,14.69
2023-11-09T16:38:05.879Z,14.66
2023-11-09T16:40:36.685Z,14.70
2023-11-09T16:43:04.271Z,14.58
2023-11-09T16:45:31.827Z,14.42
2023-11-09T16:47:59.411Z,14.29
2023-11-09T16:50:27.453Z,14.14
2023-11-09T16:52:54.907Z,14.43
2023-11-09T16:55:22.574Z,14.28
2023-11-09T16:57:50.410Z,14.18
2023-11-09T17:00:22.943Z,14.19
2023-11-09T17:02:50.704Z,13.99
2023-11-09T17:05:18.098Z,13.92
2023-11-09T17:07:47.159Z,14.19
2023-11-09T17:10:15.722Z,14.13
2023-11-09T17:12:43.834Z,13.93
2023-11-09T17:15:13.199Z,13.86
2023-11-09T17:17:42.736Z,13.51
2023-11-09T17:20:11.778Z,13.84
2023-11-09T17:22:39.831Z,13.69
2023-11-09T17:25:09.262Z,13.53
2023-11-09T17:27:37.219Z,13.76
2023-11-09T17:30:10.473Z,13.80
2023-11-09T17:32:40.365Z,13.72
2023-11-09T17:35:09.688Z,13.81
2023-11-09T17:37:38.057Z,13.61
2023-11-09T17:40:12.666Z,13.89
2023-11-09T17:42:41.858Z,13.85
2023-11-09T17:45:11.392Z,13.93
2023-11-09T17:47:39.563Z,13.85
2023-11-09T17:50:12.322Z,13.51
2023-11-09T17:52:42.262Z,13.62
2023-11-09T17:55:13.406Z,13.78
2023-11-09T17:57:42.549Z,13.68
2023-11-09T18:00:16.190Z,13.55
2023-11-09T18:02:47.031Z,13.55
2023-11-09T18:05:16.097Z,13.37
2023-11-09T18:07:45.737Z,13.61
2023-11-09T18:10:14.115Z,13.46
2023-11-09T18:12:43.543Z,13.30
2023-11-09T18:15:12.558Z,13.43
2023-11-09T18:17:41.406Z,13.49
2023-11-09T18:20:14.031Z,12.98
2023-11-09T18:22:44.553Z,13.17
2023-11-09T18:25:12.990Z,13.32
2023-11-09T18:27:41.207Z,13.21
2023-11-09T18:30:12.158Z,13.16
2023-11-09T18:32:39.924Z,12.98
2023-11-09T18:35:08.177Z,12.83
2023-11-09T18:37:36.406Z,12.82
2023-11-09T18:40:06.119Z,12.97
2023-11-09T18:42:34.115Z,13.15
2023-11-09T18:45:02.997Z,13.04
2023-11-09T18:47:32.910Z,12.99
2023-11-09T18:52:34.188Z,13.02
2023-11-09T18:55:03.915Z,13.24
2023-11-09T18:57:33.091Z,13.10
2023-11-09T19:00:02.589Z,13.27
2023-11-09T19:02:31.423Z,12.89
2023-11-09T19:05:00.702Z,12.90
2023-11-09T19:07:30.875Z,13.01
2023-11-09T19:10:02.241Z,13.15
2023-11-09T19:12:35.326Z,13.09
2023-11-09T19:15:05.528Z,12.95
2023-11-09T19:17:35.614Z,12.98
2023-11-09T19:20:09.370Z,13.12
2023-11-09T19:22:41.904Z,12.67
2023-11-09T19:25:11.922Z,12.97
2023-11-09T19:27:44.608Z,13.05
2023-11-09T19:30:21.474Z,12.90
2023-11-09T19:32:51.053Z,12.95
2023-11-09T19:35:21.706Z,12.93
2023-11-09T19:37:51.068Z,12.90
2023-11-09T19:40:21.125Z,12.80
2023-11-09T19:42:50.557Z,12.92
2023-11-09T19:45:31.467Z,12.96
2023-11-09T19:48:03.482Z,12.97
2023-11-09T19:50:33.038Z,12.56
2023-11-09T19:53:03.563Z,12.57
2023-11-09T19:55:32.849Z,12.73
2023-11-09T19:58:06.485Z,12.71
2023-11-09T20:00:36.302Z,12.57
2023-11-09T20:03:07.957Z,12.69
2023-11-09T20:05:39.540Z,12.83
2023-11-09T20:08:09.132Z,12.89
2023-11-09T20:10:38.709Z,12.94
2023-11-09T20:13:09.460Z,12.63
2023-11-09T20:15:38.135Z,12.49
2023-11-09T20:18:06.758Z,12.52
2023-11-09T20:20:35.893Z,12.79
2023-11-09T20:23:07.069Z,13.00
2023-11-09T20:25:39.222Z,12.63
2023-11-09T20:28:08.839Z,13.15
2023-11-09T20:30:38.147Z,12.94
2023-11-09T20:33:08.153Z,13.03
2023-11-09T20:35:37.083Z,11.60
2023-11-09T20:38:08.711Z,12.06
2023-11-09T20:40:37.236Z,12.66
2023-11-09T20:43:06.121Z,12.65
2023-11-09T20:45:34.913Z,12.73
2023-11-09T20:48:05.029Z,12.74
2023-11-09T20:50:34.107Z,12.62
2023-11-09T20:53:02.643Z,12.93
2023-11-09T20:55:33.761Z,12.97
2023-11-09T20:58:03.327Z,13.20
2023-11-09T21:00:32.945Z,12.79
2023-11-09T21:03:01.066Z,12.16
2023-11-09T21:05:29.355Z,12.47
2023-11-09T21:08:00.035Z,11.93
2023-11-09T21:10:28.343Z,12.77
2023-11-09T21:12:56.041Z,12.89
2023-11-09T21:15:26.729Z,13.18
2023-11-09T21:17:55.008Z,13.13
2023-11-09T21:20:23.205Z,13.04
2023-11-09T21:22:50.525Z,13.23
2023-11-09T21:25:17.776Z,13.03
2023-11-09T21:27:47.000Z,13.29
2023-11-09T21:30:17.796Z,12.64
2023-11-09T21:32:46.141Z,12.86
2023-11-09T21:35:16.352Z,13.06
2023-11-09T21:37:43.791Z,13.04
2023-11-09T21:40:15.380Z,13.27
2023-11-09T21:42:43.099Z,13.12
2023-11-09T21:45:14.199Z,13.11
2023-11-09T21:47:42.039Z,13.05
2023-11-09T21:50:11.377Z,13.19
2023-11-09T21:52:39.320Z,12.57
2023-11-09T21:55:10.271Z,12.69
2023-11-09T21:57:40.683Z,12.92
2023-11-09T22:00:18.987Z,12.99
2023-11-09T22:02:47.966Z,12.89
2023-11-09T22:05:16.180Z,12.64
2023-11-09T22:07:43.425Z,12.76
2023-11-09T22:10:12.656Z,12.58
2023-11-09T22:12:40.786Z,12.41
2023-11-09T22:15:10.176Z,12.42
2023-11-09T22:17:37.781Z,12.46
2023-11-09T22:20:08.488Z,12.61
2023-11-09T22:22:35.715Z,12.60
2023-11-09T22:25:03.941Z,12.50
2023-11-09T22:27:31.368Z,12.34
2023-11-09T22:29:58.963Z,12.15
2023-11-09T22:32:27.061Z,12.31
2023-11-09T22:34:55.198Z,12.28
2023-11-09T22:37:22.865Z,12.17
2023-11-09T22:39:50.422Z,12.10
2023-11-09T22:42:17.772Z,12.01
2023-11-09T22:44:45.120Z,12.18
2023-11-09T22:47:13.837Z,12.14
2023-11-09T22:49:41.137Z,12.06
2023-11-09T22:52:08.673Z,11.96
2023-11-09T22:54:36.596Z,11.87
2023-11-09T22:57:07.188Z,11.93
2023-11-09T22:59:34.680Z,12.05
2023-11-09T23:02:02.489Z,12.03
2023-11-09T23:04:31.731Z,12.09
2023-11-09T23:06:59.056Z,12.04
2023-11-09T23:09:27.482Z,12.04
2023-11-09T23:11:54.916Z,12.09
2023-11-09T23:14:22.244Z,11.91
2023-11-09T23:16:50.033Z,11.88
2023-11-09T23:19:17.369Z,11.93
2023-11-09T23:21:44.829Z,11.89
2023-11-09T23:24:12.590Z,11.86
2023-11-09T23:26:39.948Z,11.78
2023-11-09T23:29:07.257Z,11.79
2023-11-09T23:31:34.877Z,11.71
2023-11-09T23:34:02.584Z,11.69
2023-11-09T23:36:30.072Z,11.72
2023-11-09T23:38:57.689Z,11.70
2023-11-09T23:41:24.994Z,11.73
2023-11-09T23:43:52.213Z,11.73
2023-11-09T23:46:19.758Z,11.72
2023-11-09T23:48:47.490Z,11.83
2023-11-09T23:51:17.798Z,11.63
2023-11-09T23:53:45.367Z,11.70
2023-11-09T23:56:13.702Z,11.75
2023-11-09T23:58:40.920Z,11.78
